EDHI/XFW METAR and TAF weather

Enter ICAO airport designator
Station Type Date Time Source
EDHI METAR 2020/09/18 20:50 UTC NOAA

EDHI 182050Z AUTO 06006KT 9999 // NCD 13/08 Q1026


Station Type Date Time Source
EDHI Decoded METAR 2020/09/18 20:50 UTC NOAA

Hamburg-Finkenwerder, Germany (EDHI) 53-32N 009-50E 13M
Sep 18, 2020 - 04:50 PM EDT / 2020.09.18 2050 UTC
Wind: from the ENE (060 degrees) at 7 MPH (6 KT):0
Visibility: greater than 7 mile(s):0
Temperature: 55 F (13 C)
Dew Point: 46 F (8 C)
Relative Humidity: 71%
Pressure (altimeter): 30.30 in. Hg (1026 hPa)
ob: EDHI 182050Z AUTO 06006KT 9999 // NCD 13/08 Q1026
cycle: 21

Station Type Date Time Source
EDHI TAF 2010/02/22 14:20 UTC NOAA

METAR EDHI 221420Z 17005KT 9999 BKN030 05/02 Q0989

Example: see airport list